Barisal, Bangladesh
Current Conditions -  °F | °C
As of 7:20 AM on Saturday 20 Dec 2014 (Local Time) from VGHS Reporting Station
Moderate Fog Moderate Fog  
Wind Chill: 59°   Ceiling: Unl
Heat Index: 59°   Visibility: 0.37mi
Dew Point: 57°   Wind: 0mph
Humidity: 94%   Direction: NA
Pressure: 29.97"   Gusts: NA
Location:  22.7°N, 90.37°E
Report Text: VGHS 200120Z 00000KT 0600 FG NSC 15/14 Q1015 TEMPO S/VIS 0400M
Loading
Personal Weather Stations






























Interactive Weather Map New forecast layout! Learn more

10-Day Weather Forecast

Advertisements
Track Severe Weather on mobile